createdAt,value
2023-04-18T00:00:15.342Z,102911.16
2023-04-18T00:03:05.117Z,102918.63
2023-04-18T00:05:53.252Z,102909.97
2023-04-18T00:08:41.171Z,102910.06
2023-04-18T00:11:31.494Z,102911.03
2023-04-18T00:14:21.116Z,102904.91
2023-04-18T00:17:11.644Z,102910.38
2023-04-18T00:20:06.990Z,102909.72
2023-04-18T00:22:55.065Z,102915.22
2023-04-18T00:25:42.723Z,102909.44
2023-04-18T00:28:30.157Z,102915.56
2023-04-18T00:31:17.613Z,102923.13
2023-04-18T00:34:05.327Z,102917.41
2023-04-18T00:36:55.205Z,102918.44
2023-04-18T00:39:44.721Z,102914.78
2023-04-18T00:42:32.421Z,102927.63
2023-04-18T00:45:20.921Z,102916.75
2023-04-18T00:48:09.422Z,102915.41
2023-04-18T00:50:58.274Z,102913.38
2023-04-18T00:53:46.958Z,102919.09
2023-04-18T00:56:35.160Z,102920.44
2023-04-18T00:59:22.633Z,102926.16
2023-04-18T01:02:13.683Z,102917.38
2023-04-18T01:05:01.682Z,102908.34
2023-04-18T01:07:52.302Z,102907.50
2023-04-18T01:10:41.579Z,102910.53
2023-04-18T01:13:36.237Z,102909.75
2023-04-18T01:16:23.957Z,102913.63
2023-04-18T01:19:11.683Z,102906.09
2023-04-18T01:21:59.188Z,102906.75
2023-04-18T01:24:48.629Z,102909.28
2023-04-18T01:27:38.364Z,102901.69
2023-04-18T01:30:26.328Z,102902.13
2023-04-18T01:33:16.411Z,102889.16
2023-04-18T01:36:04.263Z,102902.44
2023-04-18T01:38:51.631Z,102895.16
2023-04-18T01:41:41.290Z,102883.47
2023-04-18T01:44:28.473Z,102883.56
2023-04-18T01:47:15.866Z,102885.25
2023-04-18T01:50:08.463Z,102888.00
2023-04-18T01:52:56.283Z,102891.13
2023-04-18T01:55:45.067Z,102883.22
2023-04-18T01:58:33.832Z,102888.78
2023-04-18T02:01:24.192Z,102888.03
2023-04-18T02:04:14.172Z,102885.59
2023-04-18T02:07:02.777Z,102886.53
2023-04-18T02:09:52.435Z,102881.47
2023-04-18T02:12:39.976Z,102882.31
2023-04-18T02:15:28.421Z,102881.59
2023-04-18T02:18:16.317Z,102881.47
2023-04-18T02:21:03.909Z,102880.09
2023-04-18T02:23:51.959Z,102878.22
2023-04-18T02:26:40.338Z,102883.88
2023-04-18T02:29:28.122Z,102890.16
2023-04-18T02:32:19.856Z,102877.28
2023-04-18T02:35:08.160Z,102879.06
2023-04-18T02:37:55.503Z,102874.41
2023-04-18T02:40:42.870Z,102875.66
2023-04-18T02:43:30.243Z,102878.63
2023-04-18T02:46:26.803Z,102885.47
2023-04-18T02:49:15.809Z,102877.78
2023-04-18T02:52:03.459Z,102879.97
2023-04-18T02:54:50.793Z,102877.25
2023-04-18T02:57:38.260Z,102879.31
2023-04-18T03:00:26.122Z,102882.03
2023-04-18T03:03:13.669Z,102878.84
2023-04-18T03:06:02.572Z,102885.91
2023-04-18T03:08:50.724Z,102885.16
2023-04-18T03:11:38.129Z,102873.88
2023-04-18T03:14:25.820Z,102885.53
2023-04-18T03:17:13.303Z,102883.03
2023-04-18T03:20:01.310Z,102886.88
2023-04-18T03:22:49.944Z,102885.47
2023-04-18T03:25:40.020Z,102883.88
2023-04-18T03:28:29.619Z,102883.97
2023-04-18T03:31:17.248Z,102891.38
2023-04-18T03:34:07.626Z,102877.59
2023-04-18T03:36:54.872Z,102885.00
2023-04-18T03:39:43.688Z,102892.34
2023-04-18T03:42:30.921Z,102880.03
2023-04-18T03:45:18.278Z,102880.56
2023-04-18T03:48:07.245Z,102885.94
2023-04-18T03:50:54.492Z,102886.69
2023-04-18T03:53:45.409Z,102885.22
2023-04-18T03:56:34.090Z,102885.00
2023-04-18T03:59:21.576Z,102883.97
2023-04-18T04:02:11.315Z,102893.28
2023-04-18T04:04:58.846Z,102893.84
2023-04-18T04:07:46.065Z,102901.56
2023-04-18T04:10:33.560Z,102895.53
2023-04-18T04:13:22.329Z,102904.75
2023-04-18T04:16:12.710Z,102896.44
2023-04-18T04:19:00.126Z,102897.69
2023-04-18T04:21:47.757Z,102900.22
2023-04-18T04:24:35.425Z,102907.72
2023-04-18T04:27:22.922Z,102884.63
2023-04-18T04:30:13.549Z,102908.13
2023-04-18T04:37:40.032Z,102909.34
2023-04-18T04:40:27.324Z,102904.00
2023-04-18T04:43:15.563Z,102899.38
2023-04-18T04:46:07.497Z,102904.84
2023-04-18T04:48:54.818Z,102908.13
2023-04-18T04:51:43.018Z,102911.50
2023-04-18T04:54:31.577Z,102908.03
2023-04-18T04:57:21.457Z,102914.97
2023-04-18T05:00:10.638Z,102914.88
2023-04-18T05:03:02.346Z,102908.88
2023-04-18T05:05:50.672Z,102914.88
2023-04-18T05:08:39.919Z,102914.31
2023-04-18T05:11:27.737Z,102923.19
2023-04-18T05:14:16.078Z,102911.91
2023-04-18T05:17:04.169Z,102922.50
2023-04-18T05:19:53.108Z,102921.84
2023-04-18T05:22:41.012Z,102928.91
2023-04-18T05:25:31.812Z,102921.09
2023-04-18T05:28:20.263Z,102921.09
2023-04-18T05:31:09.462Z,102924.47
2023-04-18T05:33:58.295Z,102924.09
2023-04-18T05:36:54.167Z,102929.56
2023-04-18T05:39:42.037Z,102933.81
2023-04-18T05:42:32.592Z,102936.97
2023-04-18T05:45:23.927Z,102930.09
2023-04-18T05:48:16.063Z,102927.09
2023-04-18T05:51:06.962Z,102930.31
2023-04-18T05:54:09.744Z,102938.69
2023-04-18T05:57:06.243Z,102930.41
2023-04-18T05:59:59.603Z,102937.56
2023-04-18T06:02:50.848Z,102940.28
2023-04-18T06:05:41.243Z,102946.94
2023-04-18T06:08:31.376Z,102948.16
2023-04-18T06:11:22.833Z,102934.19
2023-04-18T06:14:10.603Z,102947.69
2023-04-18T06:16:58.238Z,102945.72
2023-04-18T06:19:45.866Z,102946.75
2023-04-18T06:22:37.311Z,102945.63
2023-04-18T07:01:57.049Z,102973.47
2023-04-18T07:04:44.918Z,102979.88
2023-04-18T07:07:35.829Z,102974.31
2023-04-18T07:10:25.683Z,102992.09
2023-04-18T07:13:12.967Z,102978.56
2023-04-18T07:16:04.334Z,102969.72
2023-04-18T07:18:55.888Z,102967.84
2023-04-18T07:21:46.027Z,102959.19
2023-04-18T07:24:33.761Z,102973.94
2023-04-18T07:27:24.287Z,102977.38
2023-04-18T07:30:12.790Z,102981.88
2023-04-18T07:33:00.276Z,102977.38
2023-04-18T07:35:50.006Z,102982.25
2023-04-18T07:38:37.408Z,102986.31
2023-04-18T07:41:25.217Z,102964.06
2023-04-18T07:44:12.872Z,102978.13
2023-04-18T07:47:00.361Z,102988.13
2023-04-18T07:49:47.595Z,102970.22
2023-04-18T07:52:37.463Z,102975.63
2023-04-18T07:55:26.529Z,102977.84
2023-04-18T07:58:17.470Z,102976.88
2023-04-18T08:01:06.469Z,102974.56
2023-04-18T08:03:55.386Z,102966.91
2023-04-18T08:06:42.610Z,102964.97
2023-04-18T08:09:31.344Z,102956.44
2023-04-18T08:12:18.618Z,102962.88
2023-04-18T08:15:07.086Z,102965.19
2023-04-18T08:17:54.570Z,102968.16
2023-04-18T08:20:44.989Z,102967.81
2023-04-18T08:23:36.381Z,102965.81
2023-04-18T08:26:30.300Z,102964.66
2023-04-18T08:29:19.223Z,102977.66
2023-04-18T08:32:07.331Z,102972.16
2023-04-18T08:34:56.339Z,102969.19
2023-04-18T08:37:44.486Z,102965.28
2023-04-18T08:40:31.849Z,102964.31
2023-04-18T08:43:33.383Z,102967.53
2023-04-18T08:46:23.849Z,102970.41
2023-04-18T08:49:12.098Z,102969.09
2023-04-18T08:52:04.479Z,102977.50
2023-04-18T08:54:54.072Z,102978.28
2023-04-18T08:57:41.839Z,102983.38
2023-04-18T09:00:32.929Z,102981.78
2023-04-18T09:03:37.446Z,102979.53
2023-04-18T09:06:27.807Z,102974.88
2023-04-18T09:09:15.736Z,102965.38
2023-04-18T09:12:08.264Z,102960.53
2023-04-18T09:15:09.682Z,102959.56
2023-04-18T09:18:00.557Z,102968.53
2023-04-18T09:20:50.057Z,102968.88
2023-04-18T09:23:38.635Z,102972.09
2023-04-18T09:26:34.295Z,102963.91
2023-04-18T09:29:22.713Z,102962.41
2023-04-18T09:32:10.473Z,102980.78
2023-04-18T09:35:04.090Z,102968.28
2023-04-18T09:37:55.021Z,102969.78
2023-04-18T09:40:42.624Z,102973.00
2023-04-18T09:43:30.274Z,102955.09
2023-04-18T09:46:18.030Z,102959.63
2023-04-18T09:49:05.554Z,102951.66
2023-04-18T09:51:56.009Z,102956.41
2023-04-18T09:54:48.324Z,102966.78
2023-04-18T09:57:37.433Z,102964.78
2023-04-18T10:00:27.481Z,102964.00
2023-04-18T10:03:18.988Z,102964.81
2023-04-18T10:06:08.239Z,102959.03
2023-04-18T10:08:57.511Z,102957.47
2023-04-18T10:11:46.656Z,102956.50
2023-04-18T10:14:36.360Z,102947.41
2023-04-18T10:17:23.860Z,102949.50
2023-04-18T10:20:23.455Z,102959.59
2023-04-18T10:23:36.656Z,102946.69
2023-04-18T10:26:50.363Z,102952.03
2023-04-18T10:29:51.413Z,102955.03
2023-04-18T10:32:40.457Z,102945.28
2023-04-18T10:35:27.890Z,102944.22
2023-04-18T10:38:23.196Z,102937.47
2023-04-18T10:41:23.212Z,102930.84
2023-04-18T10:48:55.404Z,102920.22
2023-04-18T10:55:55.553Z,102933.97
2023-04-18T10:58:47.726Z,102925.81
2023-04-18T11:01:38.107Z,102917.88
2023-04-18T11:04:25.843Z,102930.81
2023-04-18T11:07:14.215Z,102936.25
2023-04-18T11:10:02.285Z,102928.22
2023-04-18T11:12:51.911Z,102921.22
2023-04-18T11:15:40.044Z,102909.81
2023-04-18T11:18:39.313Z,102926.50
2023-04-18T11:21:30.475Z,102914.34
2023-04-18T11:24:24.503Z,102921.25
2023-04-18T11:27:13.928Z,102917.63
2023-04-18T11:30:02.965Z,102909.81
2023-04-18T11:32:50.220Z,102912.31
2023-04-18T11:35:39.038Z,102903.38
2023-04-18T11:38:31.902Z,102910.63
2023-04-18T11:41:19.262Z,102905.84
2023-04-18T11:44:07.941Z,102901.84
2023-04-18T11:46:57.215Z,102903.88
2023-04-18T11:49:44.667Z,102898.63
2023-04-18T11:52:33.350Z,102893.47
2023-04-18T11:55:23.203Z,102895.53
2023-04-18T11:58:11.431Z,102878.28
2023-04-18T12:00:59.326Z,102885.53
2023-04-18T12:04:02.122Z,102886.59
2023-04-18T12:06:52.035Z,102905.16
2023-04-18T12:09:39.432Z,102903.09
2023-04-18T12:12:27.223Z,102895.81
2023-04-18T12:15:17.757Z,102903.31
2023-04-18T12:18:08.622Z,102906.00
2023-04-18T12:21:02.452Z,102898.00
2023-04-18T12:23:50.819Z,102899.63
2023-04-18T12:26:47.888Z,102902.97
2023-04-18T12:29:35.629Z,102899.81
2023-04-18T12:32:23.243Z,102896.25
2023-04-18T12:35:10.764Z,102902.03
2023-04-18T12:38:01.325Z,102893.81
2023-04-18T12:40:51.559Z,102879.19
2023-04-18T12:43:39.201Z,102887.53
2023-04-18T12:46:27.238Z,102882.00
2023-04-18T12:49:14.897Z,102878.84
2023-04-18T12:52:02.587Z,102893.34
2023-04-18T12:54:51.697Z,102881.44
2023-04-18T12:57:39.513Z,102880.88
2023-04-18T13:00:29.000Z,102879.91
2023-04-18T13:03:17.263Z,102875.69
2023-04-18T13:06:06.057Z,102877.09
2023-04-18T13:08:53.650Z,102873.13
2023-04-18T13:11:45.023Z,102877.28
2023-04-18T13:14:34.778Z,102872.72
2023-04-18T13:17:22.462Z,102876.75
2023-04-18T13:20:15.359Z,102869.03
2023-04-18T13:23:03.119Z,102862.50
2023-04-18T13:25:59.051Z,102875.44
2023-04-18T13:28:52.616Z,102867.63
2023-04-18T13:31:40.156Z,102862.78
2023-04-18T13:34:29.694Z,102855.47
2023-04-18T13:37:17.684Z,102863.16
2023-04-18T13:40:09.702Z,102857.69
2023-04-18T13:42:57.135Z,102863.41
2023-04-18T13:45:46.349Z,102864.44
2023-04-18T13:48:34.065Z,102860.59
2023-04-18T13:51:24.053Z,102864.44
2023-04-18T13:54:14.724Z,102865.59
2023-04-18T13:57:11.686Z,102858.19
2023-04-18T14:00:01.446Z,102857.03
2023-04-18T14:02:50.453Z,102851.72
2023-04-18T14:05:38.219Z,102846.63
2023-04-18T14:08:28.025Z,102843.38
2023-04-18T14:11:16.574Z,102839.00
2023-04-18T14:14:04.343Z,102844.34
2023-04-18T14:16:51.844Z,102840.88
2023-04-18T14:19:41.765Z,102844.09
2023-04-18T14:22:34.915Z,102839.03
2023-04-18T14:25:22.838Z,102845.19
2023-04-18T14:28:12.556Z,102846.16
2023-04-18T14:31:06.882Z,102848.94
2023-04-18T14:33:57.630Z,102845.44
2023-04-18T14:36:47.000Z,102844.59
2023-04-18T14:39:34.762Z,102840.03
2023-04-18T14:42:23.884Z,102842.25
2023-04-18T14:45:11.933Z,102839.38
2023-04-18T14:48:08.796Z,102846.03
2023-04-18T14:50:59.989Z,102843.50
2023-04-18T14:53:48.699Z,102836.50
2023-04-18T14:56:36.431Z,102834.53
2023-04-18T14:59:33.061Z,102830.69
2023-04-18T15:02:23.435Z,102828.41
2023-04-18T15:05:14.250Z,102829.13
2023-04-18T15:08:07.353Z,102819.84
2023-04-18T15:10:58.457Z,102822.50
2023-04-18T15:13:48.581Z,102816.53
2023-04-18T15:16:43.205Z,102815.94
2023-04-18T15:19:31.806Z,102816.63
2023-04-18T15:22:27.073Z,102818.44
2023-04-18T15:25:17.210Z,102810.53
2023-04-18T15:28:07.157Z,102812.16
2023-04-18T15:30:54.705Z,102817.84
2023-04-18T15:33:41.984Z,102809.72
2023-04-18T15:36:31.903Z,102801.09
2023-04-18T15:39:24.125Z,102814.69
2023-04-18T15:42:15.048Z,102803.16
2023-04-18T15:45:08.133Z,102799.94
2023-04-18T15:47:55.908Z,102799.06
2023-04-18T15:50:49.749Z,102808.75
2023-04-18T15:53:44.260Z,102794.41
2023-04-18T15:56:33.647Z,102796.53
2023-04-18T15:59:26.854Z,102797.19
2023-04-18T16:02:18.902Z,102793.75
2023-04-18T16:05:11.716Z,102787.38
2023-04-18T16:08:09.721Z,102803.16
2023-04-18T16:10:57.101Z,102797.16
2023-04-18T16:13:56.777Z,102786.31
2023-04-18T16:16:45.237Z,102790.94
2023-04-18T16:19:36.321Z,102786.56
2023-04-18T16:22:25.009Z,102782.31
2023-04-18T16:25:17.416Z,102789.06
2023-04-18T16:28:06.388Z,102791.81
2023-04-18T16:31:00.023Z,102793.03
2023-04-18T16:33:49.175Z,102797.53
2023-04-18T16:36:42.583Z,102797.09
2023-04-18T16:39:30.932Z,102800.94
2023-04-18T16:42:18.924Z,102791.22
2023-04-18T16:45:12.812Z,102798.22
2023-04-18T16:48:02.975Z,102791.50
2023-04-18T16:50:50.711Z,102800.88
2023-04-18T16:53:42.789Z,102793.78
2023-04-18T16:56:37.032Z,102795.56
2023-04-18T16:59:24.729Z,102792.66
2023-04-18T17:02:18.835Z,102781.50
2023-04-18T17:05:07.902Z,102787.97
2023-04-18T17:07:56.113Z,102777.63
2023-04-18T17:10:45.828Z,102785.50
2023-04-18T17:13:33.168Z,102780.13
2023-04-18T17:16:21.337Z,102779.69
2023-04-18T17:19:09.220Z,102782.34
2023-04-18T17:21:56.765Z,102784.75
2023-04-18T17:24:44.066Z,102785.16
2023-04-18T17:27:32.860Z,102790.78
2023-04-18T17:30:20.490Z,102794.25
2023-04-18T17:33:07.997Z,102788.50
2023-04-18T17:35:58.102Z,102783.47
2023-04-18T17:38:50.819Z,102787.84
2023-04-18T17:41:39.514Z,102788.13
2023-04-18T17:44:30.021Z,102787.53
2023-04-18T17:47:19.179Z,102795.56
2023-04-18T17:50:07.686Z,102786.03
2023-04-18T17:52:55.558Z,102782.78
2023-04-18T17:55:48.834Z,102799.16
2023-04-18T17:58:45.386Z,102796.88
2023-04-18T18:01:42.192Z,102794.22
2023-04-18T18:04:29.900Z,102789.06
2023-04-18T18:07:17.688Z,102796.47
2023-04-18T18:10:22.361Z,102797.28
2023-04-18T18:13:22.726Z,102795.34
2023-04-18T18:16:10.704Z,102798.66
2023-04-18T18:19:00.164Z,102804.25
2023-04-18T18:21:47.643Z,102806.16
2023-04-18T18:24:36.913Z,102807.00
2023-04-18T18:27:24.319Z,102805.00
2023-04-18T18:30:15.259Z,102808.31
2023-04-18T18:33:05.876Z,102807.59
2023-04-18T18:35:58.545Z,102809.59
2023-04-18T18:38:46.220Z,102811.72
2023-04-18T18:41:37.097Z,102813.06
2023-04-18T18:44:25.162Z,102811.91
2023-04-18T18:47:12.960Z,102816.03
2023-04-18T18:50:05.848Z,102823.13
2023-04-18T18:52:55.841Z,102826.16
2023-04-18T18:55:45.594Z,102839.09
2023-04-18T18:58:33.449Z,102836.09
2023-04-18T19:01:20.914Z,102841.81
2023-04-18T19:04:13.809Z,102837.00
2023-04-18T19:07:01.357Z,102840.88
2023-04-18T19:09:53.734Z,102853.19
2023-04-18T19:12:41.305Z,102861.44
2023-04-18T19:15:32.492Z,102861.31
2023-04-18T19:18:20.260Z,102861.06
2023-04-18T19:21:09.954Z,102870.13
2023-04-18T19:24:06.602Z,102867.13
2023-04-18T19:26:55.642Z,102870.75
2023-04-18T19:29:46.020Z,102872.94
2023-04-18T19:32:36.028Z,102874.25
2023-04-18T19:35:29.686Z,102880.31
2023-04-18T19:38:16.932Z,102872.97
2023-04-18T19:41:04.286Z,102873.56
2023-04-18T19:43:54.242Z,102873.78
2023-04-18T19:46:42.681Z,102873.91
2023-04-18T19:49:31.772Z,102885.00
2023-04-18T19:52:22.877Z,102877.63
2023-04-18T19:55:11.546Z,102882.69
2023-04-18T19:58:07.384Z,102885.00
2023-04-18T20:00:59.027Z,102885.38
2023-04-18T20:03:50.025Z,102888.25
2023-04-18T20:06:42.336Z,102889.78
2023-04-18T20:09:34.152Z,102889.69
2023-04-18T20:12:26.377Z,102892.31
2023-04-18T20:15:25.692Z,102893.75
2023-04-18T20:18:15.119Z,102902.69
2023-04-18T20:21:09.284Z,102897.00
2023-04-18T20:23:58.724Z,102897.59
2023-04-18T20:26:46.692Z,102907.94
2023-04-18T20:29:34.016Z,102911.06
2023-04-18T20:32:21.784Z,102915.84
2023-04-18T20:35:10.953Z,102911.66
2023-04-18T20:38:00.307Z,102903.84
2023-04-18T20:40:51.703Z,102917.53
2023-04-18T20:43:40.698Z,102924.84
2023-04-18T20:46:31.276Z,102924.97
2023-04-18T20:49:18.793Z,102928.56
2023-04-18T20:52:09.722Z,102923.00
2023-04-18T20:54:57.411Z,102919.50
2023-04-18T20:57:45.084Z,102922.25
2023-04-18T21:00:32.835Z,102928.53
2023-04-18T21:03:20.794Z,102931.41
2023-04-18T21:06:14.198Z,102927.00
2023-04-18T21:09:03.159Z,102925.56
2023-04-18T21:11:50.502Z,102935.34
2023-04-18T21:14:39.813Z,102933.47
2023-04-18T21:17:27.487Z,102937.06
2023-04-18T21:20:14.773Z,102929.47
2023-04-18T21:23:02.544Z,102936.06
2023-04-18T21:25:53.410Z,102936.78
2023-04-18T21:28:57.543Z,102948.00
2023-04-18T21:31:47.621Z,102942.56
2023-04-18T21:34:35.224Z,102935.72
2023-04-18T21:37:25.040Z,102944.22
2023-04-18T21:40:13.233Z,102943.47
2023-04-18T21:43:02.265Z,102944.31
2023-04-18T21:45:49.722Z,102936.72
2023-04-18T21:48:37.320Z,102941.28
2023-04-18T21:51:24.791Z,102937.88
2023-04-18T21:54:12.653Z,102938.00
2023-04-18T21:57:00.141Z,102938.47
2023-04-18T21:59:49.057Z,102933.78
2023-04-18T22:02:36.612Z,102938.34
2023-04-18T22:05:28.322Z,102937.84
2023-04-18T22:08:16.148Z,102938.78
2023-04-18T22:11:04.981Z,102938.28
2023-04-18T22:13:54.223Z,102937.22
2023-04-18T22:16:45.098Z,102932.78
2023-04-18T22:19:33.338Z,102930.66
2023-04-18T22:22:23.104Z,102934.38
2023-04-18T22:25:11.718Z,102932.69
2023-04-18T22:27:59.206Z,102932.69
2023-04-18T22:30:46.691Z,102924.47
2023-04-18T22:33:37.624Z,102928.81
2023-04-18T22:36:27.630Z,102931.66
2023-04-18T22:39:15.075Z,102930.41
2023-04-18T22:42:02.703Z,102931.66
2023-04-18T22:44:50.616Z,102936.31
2023-04-18T22:47:38.094Z,102936.44
2023-04-18T22:50:27.421Z,102932.31
2023-04-18T22:53:15.194Z,102940.56
2023-04-18T22:56:02.918Z,102936.97
2023-04-18T22:58:51.030Z,102936.00
2023-04-18T23:01:38.575Z,102929.78
2023-04-18T23:04:30.255Z,102933.91
2023-04-18T23:07:19.038Z,102935.47
2023-04-18T23:10:07.871Z,102938.38
2023-04-18T23:12:55.290Z,102939.81
2023-04-18T23:15:42.683Z,102935.59
2023-04-18T23:18:30.335Z,102940.88
2023-04-18T23:21:18.628Z,102941.00
2023-04-18T23:24:08.016Z,102948.28
2023-04-18T23:26:55.514Z,102943.97
2023-04-18T23:29:42.707Z,102940.69
2023-04-18T23:32:30.362Z,102947.13
2023-04-18T23:35:18.039Z,102947.22
2023-04-18T23:38:08.426Z,102949.13
2023-04-18T23:41:00.093Z,102948.50
2023-04-18T23:43:47.382Z,102948.09
2023-04-18T23:46:36.353Z,102947.56
2023-04-18T23:49:28.161Z,102950.94
2023-04-18T23:52:17.969Z,102945.66
2023-04-18T23:55:06.314Z,102943.66
2023-04-18T23:57:55.231Z,102939.31
